createdAt,value
2018-11-13T00:00:27.698Z,47.40
2018-11-13T00:02:58.815Z,46.37
2018-11-13T00:05:29.888Z,45.00
2018-11-13T00:08:00.730Z,46.50
2018-11-13T00:10:31.569Z,47.13
2018-11-13T00:13:03.062Z,46.07
2018-11-13T00:15:33.909Z,46.27
2018-11-13T00:18:04.930Z,45.87
2018-11-13T00:20:35.804Z,45.50
2018-11-13T00:23:07.078Z,49.60
2018-11-13T00:25:37.949Z,49.00
2018-11-13T00:28:08.758Z,50.80
2018-11-13T00:30:39.697Z,46.80
2018-11-13T00:33:10.541Z,51.67
2018-11-13T00:35:41.439Z,50.17
2018-11-13T00:38:12.469Z,48.50
2018-11-13T00:40:43.298Z,50.20
2018-11-13T00:43:14.142Z,50.10
2018-11-13T00:45:45.218Z,47.20
2018-11-13T00:48:15.814Z,45.43
2018-11-13T00:50:46.772Z,46.93
2018-11-13T00:53:17.513Z,51.07
2018-11-13T00:55:48.343Z,52.63
2018-11-13T00:58:19.224Z,52.53
2018-11-13T01:00:50.164Z,47.67
2018-11-13T01:03:21.128Z,48.27
2018-11-13T01:05:52.297Z,49.70
2018-11-13T01:08:22.760Z,44.30
2018-11-13T01:10:53.637Z,45.47
2018-11-13T01:13:24.507Z,49.43
2018-11-13T01:15:55.468Z,53.50
2018-11-13T01:18:26.619Z,47.50
2018-11-13T01:20:57.429Z,47.53
2018-11-13T01:23:28.397Z,45.67
2018-11-13T01:25:59.267Z,46.70
2018-11-13T01:28:30.199Z,44.97
2018-11-13T01:31:01.035Z,48.73
2018-11-13T01:33:31.872Z,53.67
2018-11-13T01:36:02.722Z,48.90
2018-11-13T01:38:33.540Z,50.03
2018-11-13T01:41:04.440Z,43.30
2018-11-13T01:43:35.222Z,48.80
2018-11-13T01:46:06.292Z,47.73
2018-11-13T01:48:37.107Z,50.33
2018-11-13T01:51:07.947Z,49.10
2018-11-13T01:53:38.884Z,49.17
2018-11-13T01:56:09.740Z,51.97
2018-11-13T01:58:40.631Z,48.13
2018-11-13T02:01:11.531Z,49.17
2018-11-13T02:03:42.408Z,50.30
2018-11-13T02:06:13.374Z,53.80
2018-11-13T02:08:44.236Z,52.43
2018-11-13T02:11:15.257Z,56.70
2018-11-13T02:13:46.125Z,55.90
2018-11-13T02:16:16.967Z,51.40
2018-11-13T02:18:47.840Z,55.37
2018-11-13T02:21:18.728Z,56.07
2018-11-13T02:23:49.571Z,54.93
2018-11-13T02:26:20.499Z,53.93
2018-11-13T02:28:51.303Z,55.97
2018-11-13T02:31:22.172Z,53.93
2018-11-13T02:33:53.061Z,61.27
2018-11-13T02:36:24.005Z,56.00
2018-11-13T02:38:54.832Z,56.93
2018-11-13T02:41:25.661Z,58.07
2018-11-13T02:43:56.525Z,57.40
2018-11-13T02:46:27.773Z,58.40
2018-11-13T02:48:58.606Z,55.20
2018-11-13T02:51:29.452Z,56.17
2018-11-13T02:54:00.320Z,54.87
2018-11-13T02:56:31.186Z,53.20
2018-11-13T02:59:02.403Z,63.67
2018-11-13T03:01:33.352Z,55.77
2018-11-13T03:04:04.346Z,52.67
2018-11-13T03:06:35.566Z,56.00
2018-11-13T03:09:08.208Z,57.87
2018-11-13T03:11:39.149Z,52.67
2018-11-13T03:14:11.217Z,53.80
2018-11-13T03:16:42.182Z,59.93
2018-11-13T03:19:13.141Z,56.13
2018-11-13T03:21:44.122Z,57.53
2018-11-13T03:24:15.008Z,56.90
2018-11-13T03:26:45.859Z,60.93
2018-11-13T03:29:16.721Z,51.87
2018-11-13T03:31:47.531Z,60.57
2018-11-13T03:34:18.385Z,60.00
2018-11-13T03:36:49.300Z,56.90
2018-11-13T03:39:20.257Z,61.70
2018-11-13T03:41:51.067Z,51.23
2018-11-13T03:44:22.191Z,55.80
2018-11-13T03:46:52.965Z,66.13
2018-11-13T03:49:24.023Z,62.50
2018-11-13T03:51:54.884Z,59.43
2018-11-13T03:54:25.678Z,60.33
2018-11-13T03:56:56.515Z,59.53
2018-11-13T03:59:27.516Z,58.80
2018-11-13T04:01:58.360Z,62.73
2018-11-13T04:04:29.188Z,66.07
2018-11-13T04:07:00.084Z,62.30
2018-11-13T04:09:30.859Z,56.60
2018-11-13T04:12:01.716Z,61.80
2018-11-13T04:14:32.484Z,72.93
2018-11-13T04:17:03.505Z,60.63
2018-11-13T04:19:34.311Z,63.87
2018-11-13T04:22:05.721Z,62.70
2018-11-13T04:24:36.617Z,69.97
2018-11-13T04:27:07.589Z,69.13
2018-11-13T04:29:38.394Z,59.87
2018-11-13T04:32:09.390Z,66.00
2018-11-13T04:34:40.212Z,62.63
2018-11-13T04:37:11.015Z,64.27
2018-11-13T04:39:41.976Z,66.03
2018-11-13T04:42:12.843Z,65.97
2018-11-13T04:44:43.837Z,68.07
2018-11-13T04:47:14.660Z,67.97
2018-11-13T04:49:45.710Z,64.20
2018-11-13T04:52:16.529Z,62.37
2018-11-13T04:54:47.528Z,64.33
2018-11-13T04:57:18.335Z,63.43
2018-11-13T04:59:49.171Z,71.67
2018-11-13T05:02:20.073Z,64.80
2018-11-13T05:04:51.079Z,65.13
2018-11-13T05:07:21.919Z,73.20
2018-11-13T05:09:54.234Z,72.53
2018-11-13T05:12:25.263Z,69.87
2018-11-13T05:14:56.085Z,75.73
2018-11-13T05:17:27.259Z,68.13
2018-11-13T05:19:58.069Z,65.40
2018-11-13T05:22:29.448Z,67.17
2018-11-13T05:25:00.272Z,70.17
2018-11-13T05:27:31.170Z,65.90
2018-11-13T05:30:02.040Z,68.67
2018-11-13T05:32:32.960Z,68.23
2018-11-13T05:35:03.798Z,69.43
2018-11-13T05:37:34.661Z,64.10
2018-11-13T05:40:08.276Z,68.83
2018-11-13T05:42:39.485Z,66.33
2018-11-13T05:45:12.570Z,74.33
2018-11-13T05:47:43.576Z,65.87
2018-11-13T05:50:15.725Z,68.10
2018-11-13T05:52:48.106Z,71.90
2018-11-13T05:55:19.051Z,70.33
2018-11-13T05:57:50.185Z,68.20
2018-11-13T06:00:23.942Z,65.87
2018-11-13T06:02:54.841Z,63.83
2018-11-13T06:05:25.738Z,63.17
2018-11-13T06:07:56.856Z,64.80
2018-11-13T06:10:27.789Z,67.47
2018-11-13T06:12:58.729Z,59.17
2018-11-13T06:15:29.656Z,55.77
2018-11-13T06:18:00.980Z,65.00
2018-11-13T06:20:31.985Z,65.97
2018-11-13T06:23:02.919Z,63.03
2018-11-13T06:25:33.942Z,60.00
2018-11-13T06:28:04.820Z,59.60
2018-11-13T06:30:36.434Z,58.63
2018-11-13T06:33:07.637Z,61.17
2018-11-13T06:35:38.586Z,60.47
2018-11-13T06:38:09.500Z,62.97
2018-11-13T06:40:40.359Z,66.53
2018-11-13T06:43:11.219Z,63.23
2018-11-13T06:45:42.202Z,60.10
2018-11-13T06:48:13.161Z,62.57
2018-11-13T06:50:43.982Z,65.17
2018-11-13T06:53:15.024Z,61.87
2018-11-13T06:55:48.328Z,65.30
2018-11-13T06:58:19.225Z,61.67
2018-11-13T07:00:50.076Z,59.60
2018-11-13T07:03:20.996Z,64.00
2018-11-13T07:05:52.117Z,63.77
2018-11-13T07:08:24.104Z,64.83
2018-11-13T07:10:55.126Z,61.07
2018-11-13T07:13:26.033Z,62.97
2018-11-13T07:15:57.130Z,60.23
2018-11-13T07:18:28.072Z,60.40
2018-11-13T07:20:58.951Z,63.27
2018-11-13T07:23:29.755Z,67.77
2018-11-13T07:26:00.668Z,64.87
2018-11-13T07:28:31.783Z,63.40
2018-11-13T07:31:02.608Z,61.43
2018-11-13T07:33:33.461Z,61.00
2018-11-13T07:36:04.528Z,63.97
2018-11-13T07:38:35.386Z,62.90
2018-11-13T07:41:06.397Z,64.27
2018-11-13T07:43:37.284Z,65.60
2018-11-13T07:46:08.247Z,64.03
2018-11-13T07:48:39.603Z,65.00
2018-11-13T07:51:10.718Z,62.73
2018-11-13T07:53:41.532Z,65.90
2018-11-13T07:56:12.479Z,68.73
2018-11-13T07:58:43.372Z,65.67
2018-11-13T08:01:14.352Z,63.63
2018-11-13T08:03:45.186Z,68.77
2018-11-13T08:06:15.960Z,68.93
2018-11-13T08:08:47.588Z,63.93
2018-11-13T08:11:18.510Z,67.47
2018-11-13T08:13:49.532Z,61.70
2018-11-13T08:16:20.394Z,68.17
2018-11-13T08:18:51.281Z,62.87
2018-11-13T08:21:22.131Z,65.37
2018-11-13T08:23:53.037Z,65.80
2018-11-13T08:26:24.035Z,64.67
2018-11-13T08:28:54.854Z,66.37
2018-11-13T08:31:25.719Z,65.63
2018-11-13T08:33:56.484Z,72.30
2018-11-13T08:36:27.366Z,69.00
2018-11-13T08:38:58.221Z,72.27
2018-11-13T08:41:29.065Z,69.40
2018-11-13T08:44:00.070Z,75.27
2018-11-13T08:46:30.937Z,68.07
2018-11-13T08:49:01.951Z,68.97
2018-11-13T08:51:32.810Z,74.23
2018-11-13T08:54:03.914Z,65.03
2018-11-13T08:56:35.089Z,70.17
2018-11-13T08:59:06.169Z,75.50
2018-11-13T09:01:36.995Z,67.40
2018-11-13T09:04:08.289Z,66.17
2018-11-13T09:06:39.224Z,68.77
2018-11-13T09:09:13.024Z,67.53
2018-11-13T09:11:44.019Z,65.90
2018-11-13T09:14:14.891Z,69.10
2018-11-13T09:16:46.814Z,65.73
2018-11-13T09:19:17.807Z,74.27
2018-11-13T09:21:49.332Z,70.10
2018-11-13T09:24:20.277Z,73.47
2018-11-13T09:26:51.232Z,67.93
2018-11-13T09:29:22.069Z,70.17
2018-11-13T09:31:53.358Z,71.83
2018-11-13T09:34:24.206Z,66.77
2018-11-13T09:36:55.315Z,67.80
2018-11-13T09:39:26.213Z,72.13
2018-11-13T09:41:57.224Z,66.93
2018-11-13T09:44:28.098Z,67.70
2018-11-13T09:46:58.895Z,66.57
2018-11-13T09:49:29.709Z,70.20
2018-11-13T09:52:00.560Z,68.27
2018-11-13T09:54:31.429Z,74.20
2018-11-13T09:57:02.243Z,74.37
2018-11-13T09:59:33.101Z,76.40
2018-11-13T10:02:04.446Z,72.00
2018-11-13T10:04:35.890Z,93.87
2018-11-13T10:07:06.512Z,91.07
2018-11-13T10:09:37.452Z,86.80
2018-11-13T10:12:08.412Z,84.43
2018-11-13T10:14:39.290Z,76.53
2018-11-13T10:17:10.226Z,88.63
2018-11-13T10:19:41.124Z,85.53
2018-11-13T10:22:11.912Z,73.43
2018-11-13T10:24:42.711Z,73.93
2018-11-13T10:27:13.643Z,72.27
2018-11-13T10:29:44.573Z,74.10
2018-11-13T10:32:15.549Z,69.67
2018-11-13T10:34:46.401Z,70.60
2018-11-13T10:37:17.548Z,71.63
2018-11-13T10:39:48.433Z,76.63
2018-11-13T10:42:19.278Z,73.93
2018-11-13T10:44:50.148Z,71.07
2018-11-13T10:47:20.993Z,74.00
2018-11-13T10:49:52.385Z,76.67
2018-11-13T10:52:23.261Z,75.27
2018-11-13T10:54:54.221Z,75.63
2018-11-13T10:57:25.052Z,70.03
2018-11-13T10:59:55.936Z,72.63
2018-11-13T11:02:31.922Z,73.77
2018-11-13T11:05:07.784Z,72.00
2018-11-13T11:07:38.641Z,80.67
2018-11-13T11:10:10.118Z,66.53
2018-11-13T11:12:41.267Z,66.80
2018-11-13T11:15:12.254Z,69.17
2018-11-13T11:17:43.122Z,72.97
2018-11-13T11:20:14.577Z,68.73
2018-11-13T11:22:45.482Z,66.43
2018-11-13T11:25:16.348Z,73.97
2018-11-13T11:27:47.147Z,69.90
2018-11-13T11:30:18.703Z,65.30
2018-11-13T11:32:49.539Z,64.57
2018-11-13T11:35:20.448Z,64.17
2018-11-13T11:37:51.344Z,64.90
2018-11-13T11:40:22.165Z,69.43
2018-11-13T11:42:53.041Z,66.00
2018-11-13T11:45:23.904Z,69.90
2018-11-13T11:47:54.795Z,68.07
2018-11-13T11:50:25.717Z,68.70
2018-11-13T11:52:56.653Z,69.93
2018-11-13T11:55:27.520Z,63.37
2018-11-13T11:57:58.358Z,65.47
2018-11-13T12:00:32.919Z,71.13
2018-11-13T12:03:04.460Z,59.33
2018-11-13T12:05:35.317Z,56.83
2018-11-13T12:08:06.256Z,57.70
2018-11-13T12:10:37.121Z,55.53
2018-11-13T12:13:07.912Z,54.47
2018-11-13T12:15:38.801Z,57.93
2018-11-13T12:18:09.653Z,53.77
2018-11-13T12:20:40.524Z,54.50
2018-11-13T12:23:13.101Z,54.40
2018-11-13T12:25:44.170Z,55.63
2018-11-13T12:28:16.172Z,52.00
2018-11-13T12:30:47.268Z,51.13
2018-11-13T12:33:18.373Z,55.87
2018-11-13T12:35:49.262Z,55.83
2018-11-13T12:38:20.165Z,58.20
2018-11-13T12:40:51.072Z,57.97
2018-11-13T12:43:21.943Z,66.93
2018-11-13T12:45:53.024Z,73.17
2018-11-13T12:48:24.153Z,81.20
2018-11-13T12:51:03.233Z,73.80
2018-11-13T12:53:35.135Z,76.50
2018-11-13T12:56:06.072Z,76.53
2018-11-13T12:58:37.142Z,81.10
2018-11-13T13:01:08.057Z,70.73
2018-11-13T13:03:39.223Z,73.87
2018-11-13T13:06:10.589Z,76.17
2018-11-13T13:08:41.509Z,78.27
2018-11-13T13:11:12.430Z,81.77
2018-11-13T13:13:44.212Z,75.03
2018-11-13T13:16:16.522Z,76.80
2018-11-13T13:18:47.377Z,91.97
2018-11-13T13:21:18.581Z,80.17
2018-11-13T13:23:49.769Z,65.40
2018-11-13T13:26:21.579Z,60.93
2018-11-13T13:28:52.618Z,49.10
2018-11-13T13:31:24.131Z,32.77
2018-11-13T13:33:55.130Z,28.17
2018-11-13T13:36:26.301Z,27.43
2018-11-13T13:38:57.391Z,16.50
2018-11-13T13:41:28.399Z,16.73
2018-11-13T13:43:59.263Z,14.60
2018-11-13T13:46:31.314Z,12.93
2018-11-13T13:49:02.288Z,11.97
2018-11-13T13:51:33.257Z,10.23
2018-11-13T13:54:04.490Z,11.30
2018-11-13T13:56:35.682Z,9.17
2018-11-13T13:59:06.758Z,8.43
2018-11-13T14:01:37.762Z,10.33
2018-11-13T14:04:08.741Z,10.90
2018-11-13T14:06:39.740Z,9.13
2018-11-13T14:09:11.624Z,7.90
2018-11-13T14:11:42.758Z,13.10
2018-11-13T14:14:14.092Z,9.97
2018-11-13T14:16:45.297Z,9.13
2018-11-13T14:19:16.313Z,11.47
2018-11-13T14:21:47.313Z,8.30
2018-11-13T14:24:18.317Z,9.80
2018-11-13T14:26:49.325Z,10.03
2018-11-13T14:29:20.533Z,10.77
2018-11-13T14:31:51.539Z,8.30
2018-11-13T14:34:22.457Z,8.63
2018-11-13T14:36:53.630Z,11.20
2018-11-13T14:39:25.614Z,11.77
2018-11-13T14:41:56.607Z,8.97
2018-11-13T14:44:27.702Z,11.30
2018-11-13T14:46:59.785Z,13.97
2018-11-13T14:49:31.021Z,15.80
2018-11-13T14:52:02.256Z,15.33
2018-11-13T14:54:33.161Z,11.23
2018-11-13T14:57:04.905Z,15.23
2018-11-13T14:59:35.920Z,12.77
2018-11-13T15:02:07.722Z,13.00
2018-11-13T15:04:38.845Z,14.30
2018-11-13T15:07:09.890Z,13.17
2018-11-13T15:09:41.383Z,14.77
2018-11-13T15:12:12.413Z,15.97
2018-11-13T15:14:43.361Z,16.93
2018-11-13T15:17:14.393Z,20.50
2018-11-13T15:19:45.281Z,20.07
2018-11-13T15:22:16.359Z,34.63
2018-11-13T15:24:47.550Z,31.30
2018-11-13T15:27:25.709Z,21.73
2018-11-13T15:29:56.732Z,19.90
2018-11-13T15:32:27.741Z,14.43
2018-11-13T15:34:59.120Z,14.40
2018-11-13T15:37:30.163Z,19.60
2018-11-13T15:40:01.775Z,20.87
2018-11-13T15:42:32.730Z,17.67
2018-11-13T15:45:04.031Z,18.57
2018-11-13T15:47:35.323Z,27.20
2018-11-13T15:50:08.153Z,18.67
2018-11-13T15:52:39.650Z,24.03
2018-11-13T15:55:11.919Z,16.83
2018-11-13T15:57:43.893Z,28.67
2018-11-13T16:00:21.530Z,20.40
2018-11-13T16:02:52.955Z,18.23
2018-11-13T16:05:35.958Z,16.30
2018-11-13T16:08:08.220Z,16.50
2018-11-13T16:10:39.303Z,15.10
2018-11-13T16:13:10.545Z,16.30
2018-11-13T16:15:41.910Z,14.87
2018-11-13T16:18:14.437Z,15.97
2018-11-13T16:20:46.466Z,15.13
2018-11-13T16:23:17.437Z,14.90
2018-11-13T16:25:48.606Z,17.80
2018-11-13T16:28:20.594Z,18.33
2018-11-13T16:30:51.761Z,20.47
2018-11-13T16:33:23.794Z,16.30
2018-11-13T16:35:54.665Z,16.73
2018-11-13T16:38:26.526Z,16.63
2018-11-13T16:40:57.383Z,17.87
2018-11-13T16:43:28.497Z,15.00
2018-11-13T16:45:59.402Z,14.93
2018-11-13T16:48:30.458Z,15.40
2018-11-13T16:51:01.652Z,15.03
2018-11-13T16:53:36.683Z,14.57
2018-11-13T16:56:08.269Z,15.43
2018-11-13T16:58:39.422Z,13.57
2018-11-13T17:01:11.272Z,15.10
2018-11-13T17:03:42.256Z,17.63
2018-11-13T17:06:13.341Z,15.10
2018-11-13T17:08:44.253Z,18.77
2018-11-13T17:11:15.284Z,15.57
2018-11-13T17:13:46.112Z,14.87
2018-11-13T17:16:17.113Z,14.87
2018-11-13T17:18:49.073Z,19.93
2018-11-13T17:21:20.773Z,18.03
2018-11-13T17:23:52.087Z,21.27
2018-11-13T17:26:23.424Z,18.93
2018-11-13T17:28:54.907Z,21.50
2018-11-13T17:31:27.036Z,22.83
2018-11-13T17:33:59.029Z,23.63
2018-11-13T17:36:30.078Z,23.63
2018-11-13T17:39:01.141Z,24.37
2018-11-13T17:41:32.130Z,23.00
2018-11-13T17:44:03.256Z,24.67
2018-11-13T17:46:34.399Z,23.77
2018-11-13T17:49:05.667Z,20.27
2018-11-13T17:51:36.792Z,23.77
2018-11-13T17:54:07.849Z,22.47
2018-11-13T17:56:39.126Z,22.70
2018-11-13T17:59:10.140Z,27.13
2018-11-13T18:01:41.104Z,30.27
2018-11-13T18:04:12.877Z,27.57
2018-11-13T18:06:43.932Z,29.00
2018-11-13T18:09:15.969Z,25.57
2018-11-13T18:11:47.068Z,24.60
2018-11-13T18:14:18.464Z,23.70
2018-11-13T18:16:49.586Z,24.33
2018-11-13T18:19:20.864Z,30.07
2018-11-13T18:21:52.156Z,24.70
2018-11-13T18:24:23.285Z,22.47
2018-11-13T18:26:54.516Z,35.83
2018-11-13T18:29:25.596Z,20.03
2018-11-13T18:31:56.803Z,27.23
2018-11-13T18:34:27.976Z,22.87
2018-11-13T18:36:59.126Z,34.27
2018-11-13T18:39:30.177Z,20.80
2018-11-13T18:42:01.796Z,23.83
2018-11-13T18:44:32.950Z,30.27
2018-11-13T18:47:04.268Z,51.30
2018-11-13T18:49:35.298Z,39.87
2018-11-13T18:52:06.832Z,28.47
2018-11-13T18:54:38.210Z,29.60
2018-11-13T18:57:09.296Z,29.37
2018-11-13T18:59:40.672Z,17.73
2018-11-13T19:02:12.565Z,17.87
2018-11-13T19:04:44.434Z,19.97
2018-11-13T19:07:17.058Z,42.40
2018-11-13T19:09:49.869Z,17.73
2018-11-13T19:12:22.805Z,22.63
2018-11-13T19:14:54.614Z,19.23
2018-11-13T19:17:25.962Z,17.37
2018-11-13T19:19:57.371Z,19.77
2018-11-13T19:22:28.401Z,21.37
2018-11-13T19:24:59.561Z,20.97
2018-11-13T19:27:31.885Z,22.03
2018-11-13T19:30:03.108Z,17.97
2018-11-13T19:32:34.447Z,18.13
2018-11-13T19:35:06.146Z,18.30
2018-11-13T19:37:38.044Z,17.13
2018-11-13T19:40:15.920Z,20.40
2018-11-13T19:42:47.841Z,19.10
2018-11-13T19:45:19.141Z,23.70
2018-11-13T19:47:50.211Z,22.13
2018-11-13T19:50:22.845Z,20.83
2018-11-13T19:52:54.312Z,35.53
2018-11-13T19:55:26.379Z,27.57
2018-11-13T19:57:58.186Z,33.13
2018-11-13T20:00:32.458Z,26.63
2018-11-13T20:03:04.942Z,57.00
2018-11-13T20:05:36.082Z,74.33
2018-11-13T20:08:08.564Z,19.20
2018-11-13T20:10:40.475Z,17.93
2018-11-13T20:13:12.203Z,20.53
2018-11-13T20:15:43.816Z,19.13
2018-11-13T20:18:15.600Z,20.90
2018-11-13T20:20:46.656Z,18.00
2018-11-13T20:23:17.702Z,20.53
2018-11-13T20:25:48.780Z,29.80
2018-11-13T20:28:19.746Z,20.17
2018-11-13T20:30:50.886Z,21.03
2018-11-13T20:33:21.942Z,18.37
2018-11-13T20:35:53.080Z,23.80
2018-11-13T20:38:24.012Z,19.33
2018-11-13T20:40:55.524Z,56.63
2018-11-13T20:43:27.311Z,89.53
2018-11-13T20:45:59.652Z,75.40
2018-11-13T20:48:31.858Z,43.37
2018-11-13T20:51:03.440Z,23.27
2018-11-13T20:53:35.133Z,19.53
2018-11-13T20:56:06.706Z,20.23
2018-11-13T20:58:38.121Z,37.43
2018-11-13T21:01:09.618Z,36.70
2018-11-13T21:03:40.671Z,31.50
2018-11-13T21:06:11.667Z,19.20
2018-11-13T21:08:43.305Z,24.20
2018-11-13T21:11:15.215Z,21.00
2018-11-13T21:13:47.463Z,17.80
2018-11-13T21:16:19.059Z,27.10
2018-11-13T21:18:50.259Z,30.10
2018-11-13T21:21:22.006Z,27.67
2018-11-13T21:23:54.227Z,36.90
2018-11-13T21:26:25.723Z,31.30
2018-11-13T21:28:56.996Z,17.73
2018-11-13T21:31:28.647Z,16.80
2018-11-13T21:33:59.625Z,12.90
2018-11-13T21:36:31.303Z,37.77
2018-11-13T21:39:03.110Z,23.53
2018-11-13T21:41:34.704Z,17.50
2018-11-13T21:44:06.391Z,14.07
2018-11-13T21:46:37.726Z,14.97
2018-11-13T21:49:09.169Z,12.87
2018-11-13T21:51:40.848Z,13.00
2018-11-13T21:54:12.297Z,12.93
2018-11-13T21:56:43.191Z,12.27
2018-11-13T21:59:14.249Z,13.03
2018-11-13T22:01:45.580Z,13.23
2018-11-13T22:04:16.876Z,13.00
2018-11-13T22:06:49.065Z,13.17
2018-11-13T22:09:20.249Z,14.70
2018-11-13T22:11:51.525Z,13.70
2018-11-13T22:14:22.904Z,13.73
2018-11-13T22:16:54.316Z,16.07
2018-11-13T22:19:25.423Z,15.73
2018-11-13T22:21:56.800Z,18.60
2018-11-13T22:24:27.933Z,18.83
2018-11-13T22:26:58.938Z,15.97
2018-11-13T22:29:29.910Z,15.93
2018-11-13T22:32:00.925Z,22.37
2018-11-13T22:34:32.350Z,79.27
2018-11-13T22:37:03.957Z,36.87
2018-11-13T22:39:35.623Z,14.80
2018-11-13T22:42:07.920Z,15.40
2018-11-13T22:44:39.336Z,12.73
2018-11-13T22:47:10.990Z,13.07
2018-11-13T22:49:43.055Z,14.33
2018-11-13T22:52:14.621Z,13.73
2018-11-13T22:54:46.952Z,16.10
2018-11-13T22:57:18.609Z,12.33
2018-11-13T22:59:50.802Z,11.70
2018-11-13T23:02:22.318Z,12.73
2018-11-13T23:04:53.836Z,12.17
2018-11-13T23:07:25.273Z,12.87
2018-11-13T23:09:56.582Z,12.50
2018-11-13T23:12:27.950Z,13.13
2018-11-13T23:14:59.645Z,16.13
2018-11-13T23:17:32.008Z,15.03
2018-11-13T23:20:03.784Z,21.27
2018-11-13T23:22:35.040Z,22.33
2018-11-13T23:25:07.439Z,24.67
2018-11-13T23:27:38.928Z,18.77
2018-11-13T23:30:20.385Z,13.37
2018-11-13T23:32:52.466Z,18.50
2018-11-13T23:35:24.208Z,13.73
2018-11-13T23:37:57.344Z,12.73
2018-11-13T23:40:30.028Z,13.87
2018-11-13T23:43:01.779Z,13.20
2018-11-13T23:45:33.355Z,22.87
2018-11-13T23:48:04.936Z,11.50
2018-11-13T23:50:36.619Z,13.70
2018-11-13T23:53:08.509Z,12.37
2018-11-13T23:55:40.252Z,31.47
2018-11-13T23:58:11.308Z,11.33
